Terminal Aerodrome Forecast
Issued by NWS

Home | Current Version | Previous Version | Text Only | Print | Product List | Glossary On
Versions: 1 2 3 4 5 6 7 8 9 10 11 12 13 14 15
000
FTUS41 KCAR 040538
TAFFVE
TAF
KFVE 040538Z 0406/0506 04005KT P6SM SCT020 OVC035
     FM040800 06005KT 6SM BR BKN015
     FM041200 VRB03KT P6SM BKN030
     FM041500 VRB03KT P6SM SCT025 BKN040
     FM041700 VRB03KT P6SM SCT035
     FM050000 08004KT P6SM BKN090=

USA.gov is the U.S. government's official web portal to all federal, state and local government web resources and services.